Time;durP1;ratioP1;P1;durP2;ratioP2;P2;SDS_P1;SDS_P2;PMS_P1;PMS_P2;Temp;Humidity;BMP_temperature;BMP_pressure;BME280_temperature;BME280_humidity;BME280_pressure;Samples;Min_cycle;Max_cycle;Signal;HPM_P1;HPM_P2
2021/12/30 00:01:33;;;;;;;0.67;0.67;;;12.50;76.20;;;;;;21282;6667;67078;-86
2021/12/30 00:03:58;;;;;;;0.80;0.80;;;12.40;76.50;;;;;;21376;6636;66665;-87
2021/12/30 00:06:23;;;;;;;0.80;0.80;;;12.40;77.10;;;;;;21055;6667;277334;-85
2021/12/30 00:08:49;;;;;;;0.63;0.63;;;12.60;78.10;;;;;;21289;6667;68674;-87
2021/12/30 00:11:14;;;;;;;0.50;0.50;;;12.70;76.70;;;;;;21060;6667;307752;-87
2021/12/30 00:13:44;;;;;;;0.62;0.62;;;13.00;77.20;;;;;;21063;6667;301115;-85
2021/12/30 00:16:05;;;;;;;0.60;0.60;;;13.30;75.90;;;;;;21066;6667;305767;-87
2021/12/30 00:18:32;;;;;;;0.60;0.57;;;13.60;74.30;;;;;;21292;6667;66909;-86
2021/12/30 00:20:58;;;;;;;0.50;0.50;;;13.60;73.40;;;;;;21296;6667;68232;-88
2021/12/30 00:23:23;;;;;;;0.60;0.43;;;13.40;74.00;;;;;;21388;6636;66258;-87
2021/12/30 00:25:50;;;;;;;0.60;0.30;;;13.10;74.70;;;;;;21298;6667;67618;-87
2021/12/30 00:28:16;;;;;;;0.60;0.60;;;12.90;75.30;;;;;;21299;6665;66777;-87
2021/12/30 00:30:41;;;;;;;0.40;0.40;;;12.80;76.30;;;;;;21296;6667;69146;-84
2021/12/30 00:33:07;;;;;;;0.90;0.70;;;12.90;77.40;;;;;;21066;6667;273797;-84
2021/12/30 00:35:33;;;;;;;0.40;0.40;;;12.80;77.30;;;;;;21076;6667;305218;-87
2021/12/30 00:37:59;;;;;;;0.50;0.50;;;13.20;76.50;;;;;;21078;6667;296880;-88
2021/12/30 00:40:24;;;;;;;1.10;0.50;;;13.60;74.80;;;;;;21084;6667;300713;-87
2021/12/30 00:42:50;;;;;;;0.43;0.43;;;13.90;73.00;;;;;;21081;6667;301075;-87
2021/12/30 00:45:16;;;;;;;0.40;0.40;;;14.10;71.50;;;;;;21186;6636;300846;-90
2021/12/30 00:47:45;;;;;;;0.83;0.50;;;14.20;70.40;;;;;;21296;6667;67016;-86
2021/12/30 00:50:10;;;;;;;0.60;0.40;;;14.00;70.40;;;;;;21256;6635;270715;-85
2021/12/30 00:52:36;;;;;;;0.40;0.40;;;14.00;70.50;;;;;;21370;6666;67562;-85
2021/12/30 00:55:01;;;;;;;0.33;0.33;;;13.80;70.90;;;;;;21409;6635;90467;-86
2021/12/30 00:57:27;;;;;;;0.45;0.30;;;13.60;71.70;;;;;;21309;6667;66688;-85
2021/12/30 00:59:53;;;;;;;0.40;0.40;;;13.10;74.00;;;;;;21406;6635;66728;-87
2021/12/30 01:02:19;;;;;;;0.30;0.30;;;13.10;74.00;;;;;;21348;6636;67472;-86
2021/12/30 01:04:44;;;;;;;0.40;0.40;;;13.00;74.80;;;;;;21064;6667;299932;-88
2021/12/30 01:07:10;;;;;;;0.43;0.43;;;13.20;74.70;;;;;;21293;6667;70860;-88
2021/12/30 01:09:38;;;;;;;1.30;0.60;;;13.20;73.90;;;;;;21078;6666;272162;-89
2021/12/30 01:12:04;;;;;;;2.03;0.50;;;13.40;73.10;;;;;;21387;6636;67033;-87
2021/12/30 01:14:31;;;;;;;1.37;0.37;;;13.40;72.60;;;;;;21302;6667;66764;-85
2021/12/30 01:16:59;;;;;;;0.50;0.47;;;13.10;72.80;;;;;;21297;6667;70255;-87
2021/12/30 01:20:06;;;;;;;0.87;0.53;;;12.80;74.00;;;;;;21293;6664;67550;-87
2021/12/30 01:21:50;;;;;;;0.93;0.40;;;12.80;74.00;;;;;;20922;6667;68463;-87
2021/12/30 01:24:16;;;;;;;1.58;0.40;;;12.50;74.80;;;;;;21370;6636;66724;-86
2021/12/30 01:26:41;;;;;;;0.57;0.30;;;12.50;75.20;;;;;;21299;6667;67849;-89
2021/12/30 01:29:07;;;;;;;0.45;0.40;;;12.40;75.70;;;;;;21191;6636;300749;-87
2021/12/30 01:31:33;;;;;;;0.60;0.47;;;12.70;75.70;;;;;;21131;6667;299550;-85
2021/12/30 01:33:59;;;;;;;0.70;0.40;;;13.00;73.90;;;;;;21126;6667;300584;-85
2021/12/30 01:36:27;;;;;;;0.57;0.57;;;13.40;72.10;;;;;;21145;6664;299492;-86
2021/12/30 01:38:51;;;;;;;0.67;0.50;;;13.60;70.50;;;;;;21317;6667;66833;-87
2021/12/30 01:41:16;;;;;;;0.45;0.45;;;13.50;70.30;;;;;;21293;6667;67117;-87
2021/12/30 01:43:42;;;;;;;2.10;0.53;;;13.20;71.10;;;;;;21298;6667;66796;-87
2021/12/30 01:46:07;;;;;;;0.52;0.50;;;13.00;72.30;;;;;;21068;6667;338476;-87
2021/12/30 01:48:33;;;;;;;0.90;0.50;;;13.30;71.60;;;;;;21130;6652;272763;-87
2021/12/30 01:50:59;;;;;;;2.40;0.53;;;13.30;71.50;;;;;;21296;6667;70023;-87
2021/12/30 01:53:24;;;;;;;0.75;0.60;;;13.30;71.20;;;;;;21060;6667;301634;-88
2021/12/30 01:55:50;;;;;;;0.60;0.52;;;13.40;70.90;;;;;;21170;6636;310600;-87
2021/12/30 01:58:16;;;;;;;1.10;0.57;;;13.60;70.90;;;;;;21061;6667;301802;-87
2021/12/30 02:00:41;;;;;;;2.50;0.63;;;13.80;69.30;;;;;;21164;6636;301140;-86
2021/12/30 02:03:09;;;;;;;1.57;0.60;;;13.90;68.40;;;;;;21063;6665;309392;-87
2021/12/30 02:05:32;;;;;;;2.37;0.50;;;14.00;67.50;;;;;;21178;6635;272113;-87
2021/12/30 02:07:58;;;;;;;0.60;0.60;;;14.10;67.10;;;;;;21298;6667;76446;-86
2021/12/30 02:10:23;;;;;;;1.30;0.60;;;13.90;67.70;;;;;;21386;6635;88650;-87
2021/12/30 02:12:50;;;;;;;0.50;0.50;;;13.40;68.70;;;;;;21288;6667;67737;-86
2021/12/30 02:15:15;;;;;;;0.47;0.47;;;13.10;70.00;;;;;;21386;6636;66732;-86
2021/12/30 02:17:41;;;;;;;1.00;0.60;;;12.90;71.20;;;;;;21077;6667;272915;-86
2021/12/30 02:20:08;;;;;;;0.75;0.43;;;13.00;72.10;;;;;;21301;6667;66957;-90
2021/12/30 02:22:35;;;;;;;1.90;0.52;;;12.90;71.70;;;;;;21043;6667;300806;-88
2021/12/30 02:25:03;;;;;;;0.53;0.50;;;13.00;72.00;;;;;;21397;6636;71190;-86
2021/12/30 02:27:26;;;;;;;0.80;0.60;;;13.00;71.80;;;;;;21283;6667;67249;-86
2021/12/30 02:29:52;;;;;;;0.50;0.50;;;12.80;72.40;;;;;;21080;6667;306179;-87
2021/12/30 02:32:22;;;;;;;0.82;0.68;;;12.90;72.90;;;;;;21076;6667;272108;-87
2021/12/30 02:34:51;;;;;;;0.60;0.50;;;13.20;72.10;;;;;;21292;6667;66432;-86
2021/12/30 02:37:16;;;;;;;0.63;0.60;;;13.10;71.50;;;;;;21111;6635;329648;-85
2021/12/30 02:39:45;;;;;;;2.97;0.53;;;13.20;71.60;;;;;;21286;6667;67310;-87
2021/12/30 02:42:08;;;;;;;1.30;0.50;;;13.10;71.40;;;;;;21379;6633;66815;-86
2021/12/30 02:44:35;;;;;;;0.53;0.40;;;12.90;72.10;;;;;;21392;6636;88773;-86
2021/12/30 02:46:59;;;;;;;0.60;0.60;;;12.70;73.40;;;;;;21294;6667;66903;-85
2021/12/30 02:49:25;;;;;;;2.47;0.80;;;12.50;74.40;;;;;;21073;6667;272866;-87
2021/12/30 02:51:52;;;;;;;0.70;0.60;;;12.70;74.70;;;;;;21073;6667;305622;-87
2021/12/30 02:54:18;;;;;;;0.77;0.77;;;13.00;73.40;;;;;;21392;6636;67674;-88
2021/12/30 02:56:47;;;;;;;0.60;0.60;;;13.00;72.50;;;;;;21063;6667;308872;-91
2021/12/30 02:59:09;;;;;;;1.00;0.68;;;13.10;72.10;;;;;;21173;6636;300449;-87
2021/12/30 03:01:34;;;;;;;0.80;0.40;;;13.40;71.10;;;;;;21178;6636;271848;-86
2021/12/30 03:04:00;;;;;;;0.77;0.60;;;13.60;70.20;;;;;;21325;6667;66911;-87
2021/12/30 03:06:25;;;;;;;0.63;0.50;;;13.50;70.40;;;;;;21354;6667;67467;-86
2021/12/30 03:08:51;;;;;;;0.70;0.63;;;13.30;71.60;;;;;;21340;6667;66411;-86
2021/12/30 03:11:16;;;;;;;0.40;0.40;;;13.00;72.70;;;;;;21417;6636;66747;-87
2021/12/30 03:13:44;;;;;;;0.60;0.32;;;12.80;73.70;;;;;;21295;6667;66865;-87
2021/12/30 03:16:17;;;;;;;1.67;0.70;;;12.70;74.40;;;;;;21077;6666;277127;-86
2021/12/30 03:18:44;;;;;;;2.07;0.67;;;12.90;74.60;;;;;;21293;6667;66619;-87
2021/12/30 03:21:10;;;;;;;0.70;0.70;;;12.90;74.00;;;;;;21288;6667;67209;-89
2021/12/30 03:23:35;;;;;;;0.50;0.50;;;12.80;74.40;;;;;;21300;6667;66805;-86
2021/12/30 03:26:01;;;;;;;0.60;0.60;;;12.90;75.20;;;;;;21073;6667;319336;-87
2021/12/30 03:28:28;;;;;;;0.80;0.60;;;13.30;74.10;;;;;;21083;6667;302902;-88
2021/12/30 03:30:58;;;;;;;0.90;0.60;;;13.30;73.40;;;;;;21080;6667;302464;-88
2021/12/30 03:33:20;;;;;;;0.30;0.30;;;13.60;71.50;;;;;;21279;6667;67479;-88
2021/12/30 03:35:44;;;;;;;0.93;0.60;;;13.60;71.20;;;;;;21078;6667;300919;-88
2021/12/30 03:38:10;;;;;;;0.50;0.50;;;13.60;71.10;;;;;;21298;6667;67311;-87
2021/12/30 03:40:35;;;;;;;1.17;0.70;;;13.60;71.90;;;;;;21301;6667;67324;-87
2021/12/30 03:43:02;;;;;;;1.17;0.50;;;13.50;71.50;;;;;;21075;6667;306530;-86
2021/12/30 03:45:27;;;;;;;0.70;0.60;;;13.50;71.50;;;;;;21291;6667;67119;-88
2021/12/30 03:47:53;;;;;;;0.70;0.50;;;13.50;71.60;;;;;;21290;6667;66937;-88
2021/12/30 03:50:20;;;;;;;0.57;0.50;;;13.30;72.20;;;;;;21290;6667;66901;-86
2021/12/30 03:52:48;;;;;;;1.80;0.60;;;13.00;73.70;;;;;;21282;6667;67369;-87
2021/12/30 03:55:13;;;;;;;0.47;0.40;;;13.00;73.70;;;;;;21276;6667;72685;-88
2021/12/30 03:57:40;;;;;;;0.52;0.52;;;12.90;74.30;;;;;;21292;6668;67383;-85
2021/12/30 04:00:06;;;;;;;0.70;0.70;;;12.80;74.80;;;;;;21074;6665;301590;-87
2021/12/30 04:02:32;;;;;;;1.17;0.67;;;13.00;74.30;;;;;;21073;6667;301584;-87
2021/12/30 04:04:57;;;;;;;0.90;0.60;;;13.40;72.60;;;;;;21190;6636;272614;-87
2021/12/30 04:07:23;;;;;;;1.17;0.70;;;13.70;70.80;;;;;;21291;6667;66438;-87
2021/12/30 04:09:50;;;;;;;1.80;0.50;;;13.70;70.60;;;;;;21296;6668;66990;-86
2021/12/30 04:12:15;;;;;;;1.30;0.70;;;13.50;71.30;;;;;;21070;6667;302230;-87
2021/12/30 04:14:41;;;;;;;0.60;0.60;;;13.60;71.20;;;;;;21279;6667;66521;-85
2021/12/30 04:17:06;;;;;;;1.08;0.73;;;13.60;71.20;;;;;;21296;6667;66781;-87
2021/12/30 04:19:32;;;;;;;1.03;0.67;;;13.40;71.70;;;;;;21389;6636;78288;-87
2021/12/30 04:21:58;;;;;;;0.53;0.53;;;13.20;72.40;;;;;;21294;6667;89193;-87
2021/12/30 04:24:23;;;;;;;2.10;0.60;;;13.10;73.10;;;;;;21073;6667;273675;-87
2021/12/30 04:26:50;;;;;;;0.60;0.60;;;13.30;72.50;;;;;;21079;6666;301442;-87
2021/12/30 04:29:16;;;;;;;1.50;1.37;;;13.90;69.30;;;;;;21078;6666;290074;-87
2021/12/30 04:31:42;;;;;;;1.40;0.80;;;13.90;69.30;;;;;;21058;6667;309918;-87
2021/12/30 04:34:07;;;;;;;1.15;0.70;;;14.10;68.20;;;;;;21290;6667;67355;-87
2021/12/30 04:36:33;;;;;;;0.43;0.43;;;14.00;68.70;;;;;;21309;6664;67039;-87
2021/12/30 04:38:58;;;;;;;0.50;0.50;;;13.70;69.50;;;;;;21291;6667;67289;-88
2021/12/30 04:41:25;;;;;;;0.75;0.60;;;13.20;71.60;;;;;;21294;6667;66382;-86
2021/12/30 04:43:50;;;;;;;0.73;0.50;;;13.20;71.60;;;;;;21286;6667;66967;-88
2021/12/30 04:46:17;;;;;;;0.50;0.50;;;13.00;73.00;;;;;;21291;6667;66715;-87
2021/12/30 04:48:42;;;;;;;0.90;0.57;;;12.90;72.90;;;;;;21293;6667;89592;-86
2021/12/30 04:51:08;;;;;;;1.35;0.88;;;12.90;73.60;;;;;;21077;6667;276674;-86
2021/12/30 04:53:33;;;;;;;1.20;0.90;;;13.10;73.40;;;;;;21304;6667;67897;-87
2021/12/30 04:55:59;;;;;;;0.80;0.80;;;13.00;73.10;;;;;;21309;6667;67777;-87
2021/12/30 04:58:25;;;;;;;1.10;0.70;;;13.00;73.10;;;;;;21308;6667;66938;-87
2021/12/30 05:00:51;;;;;;;0.60;0.60;;;12.90;73.70;;;;;;21309;6666;66376;-86
2021/12/30 05:03:16;;;;;;;0.90;0.90;;;12.80;74.10;;;;;;21077;6667;301242;-86
2021/12/30 05:05:45;;;;;;;1.48;1.10;;;12.90;73.60;;;;;;21087;6666;305766;-87
2021/12/30 05:08:11;;;;;;;2.77;0.83;;;13.30;72.10;;;;;;21344;6636;69763;-87
2021/12/30 05:10:36;;;;;;;1.10;0.90;;;13.30;71.50;;;;;;21081;6667;275970;-87
2021/12/30 05:13:02;;;;;;;0.63;0.63;;;13.40;71.20;;;;;;21398;6636;66708;-87
2021/12/30 05:15:27;;;;;;;0.75;0.60;;;13.40;71.20;;;;;;21082;6667;300895;-87
2021/12/30 05:17:53;;;;;;;1.03;0.50;;;13.40;71.30;;;;;;21398;6636;67636;-88
2021/12/30 05:20:19;;;;;;;0.70;0.70;;;13.40;71.40;;;;;;21173;6636;329405;-86
2021/12/30 05:22:44;;;;;;;0.57;0.50;;;13.50;72.50;;;;;;21085;6667;301965;-88
2021/12/30 05:25:11;;;;;;;0.60;0.57;;;13.90;70.00;;;;;;21090;6667;301438;-87
2021/12/30 05:27:36;;;;;;;0.50;0.50;;;13.90;70.00;;;;;;21298;6667;69003;-87
2021/12/30 05:30:05;;;;;;;1.23;0.52;;;13.80;69.90;;;;;;21069;6667;330318;-87
2021/12/30 05:32:32;;;;;;;2.13;0.60;;;13.80;70.20;;;;;;21383;6636;67196;-90
2021/12/30 05:34:57;;;;;;;0.80;0.60;;;13.70;70.40;;;;;;21173;6636;330553;-86
2021/12/30 05:37:23;;;;;;;1.30;0.60;;;13.70;70.80;;;;;;21080;6666;308980;-87
2021/12/30 05:39:50;;;;;;;0.40;0.40;;;13.90;70.10;;;;;;21091;6667;276450;-87
2021/12/30 05:42:15;;;;;;;1.87;0.50;;;14.10;69.30;;;;;;21180;6635;272726;-88
2021/12/30 05:44:41;;;;;;;0.90;0.30;;;14.20;68.60;;;;;;21085;6666;273888;-87
2021/12/30 05:47:06;;;;;;;0.50;0.20;;;14.40;68.40;;;;;;21069;6667;300812;-88
2021/12/30 05:49:32;;;;;;;0.73;0.37;;;14.50;67.90;;;;;;21279;6667;66462;-87
2021/12/30 05:51:59;;;;;;;1.60;0.50;;;14.20;68.10;;;;;;21396;6636;66463;-86
2021/12/30 05:54:24;;;;;;;0.40;0.40;;;13.90;69.40;;;;;;21032;6667;289055;-88
2021/12/30 05:56:50;;;;;;;0.60;0.30;;;13.90;70.10;;;;;;21082;6667;272236;-88
2021/12/30 05:59:15;;;;;;;0.98;0.40;;;14.10;69.30;;;;;;21077;6667;301710;-88
2021/12/30 06:01:41;;;;;;;0.65;0.40;;;14.30;68.60;;;;;;21294;6667;70686;-88
2021/12/30 06:04:07;;;;;;;0.50;0.40;;;14.10;68.70;;;;;;21297;6667;66854;-88
2021/12/30 06:06:33;;;;;;;1.20;0.60;;;13.80;70.40;;;;;;21184;6636;293279;-88
2021/12/30 06:09:00;;;;;;;1.00;0.43;;;13.80;70.20;;;;;;21091;6667;302176;-87
2021/12/30 06:11:26;;;;;;;0.80;0.30;;;14.00;69.40;;;;;;21183;6635;272905;-88
2021/12/30 06:13:52;;;;;;;0.40;0.40;;;14.20;68.70;;;;;;21294;6667;66458;-88
2021/12/30 06:16:17;;;;;;;0.43;0.40;;;14.10;68.70;;;;;;21077;6667;290256;-86
2021/12/30 06:18:43;;;;;;;1.65;0.40;;;14.10;69.10;;;;;;21295;6667;67010;-88
2021/12/30 06:21:08;;;;;;;0.40;0.30;;;13.90;69.30;;;;;;21393;6636;71255;-88
2021/12/30 06:23:34;;;;;;;0.30;0.20;;;13.70;70.30;;;;;;21076;6667;330279;-87
2021/12/30 06:25:59;;;;;;;0.30;0.30;;;13.70;70.80;;;;;;21090;6667;302407;-88
2021/12/30 06:28:25;;;;;;;1.08;0.40;;;14.00;69.90;;;;;;21089;6665;305125;-88
2021/12/30 06:30:50;;;;;;;0.37;0.37;;;14.20;69.00;;;;;;21180;6636;271556;-88
2021/12/30 06:33:16;;;;;;;1.20;0.40;;;14.40;68.20;;;;;;21080;6667;301569;-88
2021/12/30 06:35:42;;;;;;;0.30;0.27;;;14.50;67.70;;;;;;21303;6667;66377;-88
2021/12/30 06:38:07;;;;;;;0.30;0.30;;;14.40;67.90;;;;;;21300;6667;66817;-88
2021/12/30 06:40:33;;;;;;;0.20;0.20;;;14.00;68.90;;;;;;21177;6636;300455;-88
2021/12/30 06:42:58;;;;;;;0.30;0.30;;;14.00;69.30;;;;;;21293;6667;67227;-88
2021/12/30 06:45:25;;;;;;;1.20;0.30;;;13.70;70.40;;;;;;21401;6636;66323;-87
2021/12/30 06:47:51;;;;;;;0.40;0.30;;;13.70;70.40;;;;;;21076;6667;301836;-88
2021/12/30 06:50:20;;;;;;;1.60;0.30;;;13.80;70.90;;;;;;21296;6665;67408;-88
2021/12/30 06:52:46;;;;;;;0.37;0.30;;;13.80;70.70;;;;;;21172;6635;305487;-91
2021/12/30 06:55:09;;;;;;;0.80;0.30;;;13.90;70.70;;;;;;21337;6667;66396;-86
2021/12/30 06:57:35;;;;;;;1.40;0.40;;;13.80;71.00;;;;;;21162;6667;329790;-86
2021/12/30 07:00:00;;;;;;;1.48;0.30;;;13.90;70.60;;;;;;21480;6636;66605;-86
2021/12/30 07:02:27;;;;;;;0.20;0.20;;;13.80;70.40;;;;;;21152;6667;271760;-88
2021/12/30 07:04:53;;;;;;;0.37;0.37;;;13.90;70.50;;;;;;21200;6635;309781;-88
2021/12/30 07:07:18;;;;;;;0.17;0.17;;;14.20;69.60;;;;;;21299;6667;72661;-87
2021/12/30 07:09:47;;;;;;;0.60;0.30;;;14.10;69.30;;;;;;21092;6665;301807;-87
2021/12/30 07:12:11;;;;;;;1.40;0.20;;;14.10;69.50;;;;;;21384;6636;67200;-88
2021/12/30 07:14:36;;;;;;;1.07;0.30;;;14.00;69.50;;;;;;21091;6667;272685;-90
2021/12/30 07:17:02;;;;;;;0.30;0.30;;;14.10;70.00;;;;;;21404;6636;66838;-86
2021/12/30 07:19:28;;;;;;;1.23;0.30;;;13.80;70.70;;;;;;21323;6667;66948;-87
2021/12/30 07:21:54;;;;;;;1.10;0.40;;;13.70;70.70;;;;;;21102;6667;305002;-89
2021/12/30 07:24:23;;;;;;;0.30;0.30;;;13.80;70.90;;;;;;21086;6667;305908;-88
2021/12/30 07:26:48;;;;;;;0.30;0.30;;;14.10;70.20;;;;;;21438;6636;66260;-87
2021/12/30 07:29:14;;;;;;;0.30;0.30;;;14.00;70.00;;;;;;21329;6667;66405;-88
2021/12/30 07:31:40;;;;;;;0.50;0.40;;;13.90;71.20;;;;;;21105;6667;335972;-88
2021/12/30 07:34:06;;;;;;;0.40;0.40;;;13.90;71.20;;;;;;21083;6667;302060;-88
2021/12/30 07:36:31;;;;;;;0.50;0.50;;;14.20;70.60;;;;;;21344;6667;66360;-88
2021/12/30 07:38:57;;;;;;;0.73;0.30;;;14.10;70.20;;;;;;21309;6666;66995;-87
2021/12/30 07:41:23;;;;;;;0.37;0.30;;;13.70;71.90;;;;;;21396;6636;66488;-88
2021/12/30 07:43:49;;;;;;;0.60;0.30;;;13.70;71.60;;;;;;21300;6667;67894;-87
2021/12/30 07:46:16;;;;;;;0.20;0.20;;;13.60;72.60;;;;;;21278;6668;67405;-86
2021/12/30 07:48:41;;;;;;;0.30;0.30;;;13.50;73.50;;;;;;21173;6636;331217;-88
2021/12/30 07:51:07;;;;;;;0.33;0.33;;;13.60;73.70;;;;;;21086;6667;273000;-89
2021/12/30 07:53:32;;;;;;;1.48;0.50;;;14.00;72.70;;;;;;21074;6668;311746;-88
2021/12/30 07:56:01;;;;;;;1.80;0.37;;;14.30;71.20;;;;;;21395;6636;66183;-89
2021/12/30 07:58:24;;;;;;;2.03;0.60;;;14.20;70.60;;;;;;21071;6667;322151;-86
2021/12/30 08:00:49;;;;;;;1.53;0.50;;;14.30;70.90;;;;;;21401;6634;66776;-87
2021/12/30 08:03:15;;;;;;;0.53;0.40;;;14.20;70.80;;;;;;21302;6667;66861;-88
2021/12/30 08:05:41;;;;;;;1.40;0.43;;;14.00;71.50;;;;;;21085;6667;272385;-90
2021/12/30 08:08:07;;;;;;;0.60;0.43;;;14.00;72.00;;;;;;21303;6666;67130;-90
2021/12/30 08:10:36;;;;;;;0.77;0.45;;;14.00;71.90;;;;;;21074;6667;301091;-89
2021/12/30 08:13:02;;;;;;;0.57;0.50;;;14.10;71.80;;;;;;21105;6659;300724;-87
2021/12/30 08:15:28;;;;;;;0.73;0.70;;;14.30;70.80;;;;;;21072;6666;301685;-87
2021/12/30 08:17:54;;;;;;;1.08;0.45;;;14.80;68.90;;;;;;21079;6667;272393;-89
2021/12/30 08:20:22;;;;;;;1.07;0.40;;;14.70;68.80;;;;;;21302;6667;66867;-88
2021/12/30 08:22:46;;;;;;;0.70;0.70;;;14.60;69.70;;;;;;21180;6636;272303;-89
2021/12/30 08:25:13;;;;;;;0.90;0.50;;;14.60;69.30;;;;;;21085;6667;316396;-91
2021/12/30 08:27:38;;;;;;;4.00;0.50;;;14.80;68.70;;;;;;21403;6636;66209;-91
2021/12/30 08:30:04;;;;;;;2.07;0.73;;;14.70;69.10;;;;;;21292;6667;67689;-87
2021/12/30 08:32:30;;;;;;;0.47;0.47;;;14.40;70.10;;;;;;21167;6635;275279;-89
2021/12/30 08:34:57;;;;;;;0.60;0.60;;;14.50;70.20;;;;;;21079;6667;305285;-88
2021/12/30 08:37:22;;;;;;;0.90;0.50;;;14.70;69.00;;;;;;21396;6635;66637;-88
2021/12/30 08:39:48;;;;;;;0.80;0.70;;;14.60;68.90;;;;;;21110;6667;302541;-90
2021/12/30 08:42:17;;;;;;;1.20;0.70;;;14.60;68.70;;;;;;21361;6465;107572;-93
2021/12/30 08:44:52;;;;;;;2.00;0.90;;;14.50;68.90;;;;;;21333;6517;300591;-92
2021/12/30 08:47:20;;;;;;;1.77;1.67;;;14.60;68.90;;;;;;21287;6545;270225;-87
2021/12/30 08:49:46;;;;;;;1.17;0.88;;;14.80;68.20;;;;;;21361;6579;269995;-87
2021/12/30 08:52:16;;;;;;;2.40;0.90;;;14.90;67.40;;;;;;21336;6579;293629;-89
2021/12/30 08:54:41;;;;;;;1.27;0.70;;;15.10;66.90;;;;;;21346;6642;66912;-88
2021/12/30 08:57:07;;;;;;;0.90;0.60;;;14.90;67.40;;;;;;21162;6643;300230;-89
2021/12/30 08:59:32;;;;;;;1.43;0.70;;;14.90;67.70;;;;;;21386;6643;66214;-89
2021/12/30 09:01:58;;;;;;;1.57;0.80;;;14.70;68.00;;;;;;21216;6628;329767;-89
2021/12/30 09:04:23;;;;;;;1.95;0.80;;;14.70;68.10;;;;;;21172;6642;299957;-89
2021/12/30 09:06:49;;;;;;;0.90;0.90;;;14.90;67.70;;;;;;21386;6646;66886;-89
2021/12/30 09:09:15;;;;;;;1.25;0.70;;;14.80;67.80;;;;;;21174;6643;299710;-88
2021/12/30 09:11:40;;;;;;;1.70;0.83;;;14.80;68.20;;;;;;21213;6626;271157;-89
2021/12/30 09:14:06;;;;;;;1.87;1.30;;;15.00;67.60;;;;;;21168;6642;302858;-88
2021/12/30 09:16:32;;;;;;;1.17;0.77;;;15.20;67.10;;;;;;21168;6645;305527;-89
2021/12/30 09:18:59;;;;;;;1.10;0.77;;;15.40;66.80;;;;;;21169;6643;300683;-92
2021/12/30 09:21:26;;;;;;;0.80;0.80;;;15.60;66.50;;;;;;21390;6643;74267;-90
2021/12/30 09:23:54;;;;;;;2.07;0.60;;;15.50;66.90;;;;;;21391;6643;66695;-90
2021/12/30 09:26:20;;;;;;;0.80;0.60;;;15.20;67.90;;;;;;21236;6644;66217;-89
2021/12/30 09:28:46;;;;;;;1.10;0.68;;;15.00;69.00;;;;;;21183;6643;319986;-91
2021/12/30 09:31:11;;;;;;;2.72;0.62;;;15.20;69.20;;;;;;21202;6640;271187;-92
2021/12/30 09:33:37;;;;;;;1.30;0.73;;;15.40;67.80;;;;;;21207;6640;301077;-91
2021/12/30 09:36:05;;;;;;;0.68;0.68;;;15.70;66.90;;;;;;21417;6643;67190;-92
2021/12/30 09:38:36;;;;;;;2.37;0.60;;;15.70;66.90;;;;;;21470;6628;67886;-93
2021/12/30 09:41:02;;;;;;;1.30;0.40;;;15.40;67.70;;;;;;21468;6647;65816;-93
2021/12/30 09:43:29;;;;;;;0.75;0.50;;;15.20;68.70;;;;;;21471;6643;66592;-91
2021/12/30 09:45:55;;;;;;;1.17;0.30;;;15.10;69.70;;;;;;21475;6643;67108;-96
2021/12/30 09:48:20;;;;;;;2.35;2.15;;;15.00;70.30;;;;;;21245;6643;300126;-94
2021/12/30 09:50:49;;;;;;;0.40;0.40;;;15.10;69.90;;;;;;21429;6643;67115;-93
2021/12/30 09:53:18;;;;;;;1.40;0.43;;;15.30;69.70;;;;;;21419;6640;66694;-91
2021/12/30 09:55:44;;;;;;;0.62;0.40;;;15.20;69.90;;;;;;21146;6642;329771;-94
2021/12/30 09:58:09;;;;;;;1.20;0.33;;;15.30;69.00;;;;;;21201;6643;312040;-95
2021/12/30 10:00:35;;;;;;;1.13;0.40;;;15.70;67.80;;;;;;21189;6644;272003;-92
2021/12/30 10:03:00;;;;;;;0.40;0.40;;;15.90;66.50;;;;;;21374;6643;66709;-90
2021/12/30 10:05:26;;;;;;;0.30;0.30;;;15.90;66.80;;;;;;21394;6643;66684;-92
2021/12/30 10:08:18;;;;;;;0.30;0.30;;;15.80;67.50;;;;;;21377;6642;66345;-89
2021/12/30 10:10:44;;;;;;;0.50;0.50;;;15.60;68.10;;;;;;21338;6644;68855;-89
2021/12/30 10:13:27;;;;;;;1.30;0.50;;;15.40;69.10;;;;;;21393;6643;72333;-93
2021/12/30 10:15:51;;;;;;;1.23;0.60;;;15.20;69.60;;;;;;21403;6646;66650;-94
2021/12/30 10:18:18;;;;;;;2.08;0.60;;;15.20;70.30;;;;;;21388;6642;66655;-91
2021/12/30 10:20:42;;;;;;;0.97;0.30;;;15.10;70.50;;;;;;21365;6643;66697;-89
2021/12/30 10:23:14;;;;;;;0.62;0.47;;;15.00;70.80;;;;;;21364;6643;66242;-91
2021/12/30 10:25:49;;;;;;;0.60;0.40;;;15.00;71.40;;;;;;21083;6645;271463;-90
2021/12/30 10:28:15;;;;;;;0.20;0.20;;;15.30;70.40;;;;;;21154;6643;300822;-89
2021/12/30 10:30:41;;;;;;;0.30;0.30;;;15.70;68.30;;;;;;21360;6645;66382;-89
2021/12/30 10:33:13;;;;;;;0.70;0.37;;;15.80;67.90;;;;;;21171;6643;300420;-89
2021/12/30 10:35:39;;;;;;;0.47;0.37;;;16.00;66.70;;;;;;21370;6643;67220;-89
2021/12/30 10:38:08;;;;;;;0.37;0.20;;;16.00;66.80;;;;;;21395;6643;73028;-89
2021/12/30 10:40:30;;;;;;;0.20;0.20;;;15.80;67.20;;;;;;21174;6643;271524;-90
2021/12/30 10:43:18;;;;;;;0.40;0.20;;;15.90;66.90;;;;;;21188;6640;300673;-92
2021/12/30 10:45:41;;;;;;;0.30;0.30;;;16.20;65.30;;;;;;21141;6642;299408;-90
2021/12/30 10:48:06;;;;;;;0.70;0.30;;;16.50;64.40;;;;;;21393;6643;67247;-91
2021/12/30 10:50:32;;;;;;;0.60;0.20;;;16.50;64.80;;;;;;21166;6643;270983;-89
2021/12/30 10:56:32;;;;;;;1.90;0.20;;;16.40;64.60;;;;;;21303;6643;66919;-94
2021/12/30 10:59:18;;;;;;;0.10;0.10;;;16.10;65.30;;;;;;21415;6631;66088;-94
2021/12/30 11:01:46;;;;;;;0.40;0.40;;;15.80;65.60;;;;;;21392;6643;67219;-93
2021/12/30 11:04:12;;;;;;;0.20;0.20;;;15.70;66.40;;;;;;21351;6643;66601;-93
2021/12/30 11:06:39;;;;;;;0.40;0.20;;;15.60;67.10;;;;;;21397;6643;69128;-93
2021/12/30 11:09:16;;;;;;;0.20;0.20;;;15.50;67.50;;;;;;21420;6645;66372;-94
2021/12/30 11:11:43;;;;;;;0.23;0.23;;;15.40;67.60;;;;;;21471;6628;69738;-91
2021/12/30 11:14:09;;;;;;;0.77;0.43;;;15.40;68.00;;;;;;21364;6645;67084;-94
2021/12/30 11:16:34;;;;;;;0.20;0.20;;;15.30;68.30;;;;;;21229;6628;303711;-93
2021/12/30 11:19:00;;;;;;;0.30;0.30;;;15.50;68.00;;;;;;21324;6643;66681;-92
2021/12/30 11:21:39;;;;;;;0.40;0.40;;;15.60;67.60;;;;;;21153;6645;298537;-95
2021/12/30 11:24:04;;;;;;;0.40;0.30;;;15.90;67.40;;;;;;21214;6628;297554;-91
2021/12/30 11:26:31;;;;;;;1.93;0.50;;;16.30;65.50;;;;;;21393;6643;66270;-90
2021/12/30 11:28:57;;;;;;;0.47;0.37;;;16.30;65.30;;;;;;21392;6643;66782;-92
2021/12/30 11:31:23;;;;;;;0.30;0.30;;;16.10;65.50;;;;;;21395;6643;66592;-93
2021/12/30 11:33:50;;;;;;;0.40;0.27;;;16.00;66.40;;;;;;21403;6643;73003;-94
2021/12/30 11:36:16;;;;;;;0.40;0.40;;;15.80;67.00;;;;;;21181;6641;272599;-93
2021/12/30 11:38:41;;;;;;;1.63;0.40;;;16.00;66.20;;;;;;21350;6642;66249;-91
2021/12/30 11:41:07;;;;;;;0.30;0.30;;;16.10;66.20;;;;;;21225;6628;299205;-90
2021/12/30 11:43:42;;;;;;;0.30;0.30;;;16.30;65.80;;;;;;21396;6643;66765;-94
2021/12/30 11:46:08;;;;;;;1.03;0.40;;;16.40;65.60;;;;;;21392;6643;66612;-90
2021/12/30 11:48:38;;;;;;;0.20;0.20;;;16.20;66.10;;;;;;21304;6643;66900;-90
2021/12/30 11:51:08;;;;;;;0.37;0.32;;;16.20;66.70;;;;;;21175;6646;272393;-93
2021/12/30 11:53:35;;;;;;;0.30;0.30;;;16.30;66.10;;;;;;21220;6643;299834;-91
2021/12/30 11:56:10;;;;;;;0.45;0.40;;;16.80;64.80;;;;;;21190;6643;299553;-88
2021/12/30 11:58:40;;;;;;;1.03;0.20;;;17.10;64.50;;;;;;21415;6643;66433;-89
2021/12/30 12:01:12;;;;;;;0.30;0.30;;;17.10;63.80;;;;;;21167;6643;329471;-91
2021/12/30 12:03:40;;;;;;;0.73;0.27;;;17.20;62.90;;;;;;21410;6643;66670;-89
2021/12/30 12:06:08;;;;;;;0.30;0.30;;;17.20;63.10;;;;;;21398;6643;67567;-94
2021/12/30 12:08:41;;;;;;;0.30;0.30;;;17.00;63.70;;;;;;21372;6643;66226;-90
2021/12/30 12:11:12;;;;;;;0.20;0.20;;;16.80;64.60;;;;;;21462;6643;66529;-91
2021/12/30 12:13:45;;;;;;;0.40;0.40;;;16.70;65.00;;;;;;21449;6643;66200;-96
2021/12/30 12:19:43;;;;;;;0.30;0.30;;;16.40;65.30;;;;;;21548;6612;66225;-93
2021/12/30 12:22:19;;;;;;;0.60;0.60;;;16.20;65.70;;;;;;21516;6619;66343;-93
2021/12/30 12:24:45;;;;;;;0.60;0.50;;;16.10;66.00;;;;;;21170;6612;301096;-94
2021/12/30 12:27:10;;;;;;;0.70;0.40;;;16.30;64.90;;;;;;21099;6678;302457;-94
2021/12/30 12:29:38;;;;;;;0.35;0.30;;;16.60;63.50;;;;;;21286;6678;66402;-92
2021/12/30 12:32:03;;;;;;;0.50;0.40;;;16.60;63.60;;;;;;21148;6678;67334;-92
2021/12/30 12:34:34;;;;;;;0.30;0.30;;;16.50;64.40;;;;;;21215;6700;66613;-95
2021/12/30 12:37:00;;;;;;;0.30;0.30;;;16.40;65.20;;;;;;21288;6683;66560;-93
2021/12/30 12:39:31;;;;;;;1.30;0.30;;;16.30;65.60;;;;;;21318;6683;73237;-93
2021/12/30 12:41:57;;;;;;;0.73;0.60;;;16.20;65.90;;;;;;21217;6683;66981;-94
2021/12/30 12:44:23;;;;;;;0.30;0.30;;;16.10;66.30;;;;;;21314;6683;70560;-94
2021/12/30 12:46:49;;;;;;;0.70;0.40;;;16.10;66.70;;;;;;21113;6681;272252;-94